Time,TemperatureF,DewpointF,PressureIn,WindDirection,WindDirectionDegrees,WindSpeedMPH,WindSpeedGustMPH,Humidity,HourlyPrecipIn,Conditions,Clouds,dailyrainin,SoftwareType,DateUTC
2013-09-05 00:11:00,65.7,63.0,30.16,SW,215,0.0,0.0,90,0.00,,,0.00,weatherlink.com 1.10,2013-09-05 04:11:00,
2013-09-05 00:26:00,65.3,62.0,30.17,SW,215,0.0,0.0,90,0.00,,,0.00,weatherlink.com 1.10,2013-09-05 04:26:00,
2013-09-05 00:41:00,64.9,62.0,30.16,SW,215,0.0,0.0,91,0.00,,,0.00,weatherlink.com 1.10,2013-09-05 04:41:00,
2013-09-05 01:12:00,64.3,62.0,30.16,SW,215,0.0,0.0,92,0.00,,,0.00,weatherlink.com 1.10,2013-09-05 05:12:00,
2013-09-05 01:26:00,64.0,62.0,30.16,SW,215,0.0,0.0,93,0.00,,,0.00,weatherlink.com 1.10,2013-09-05 05:26:00,
2013-09-05 01:41:00,63.8,62.0,30.16,SW,215,0.0,0.0,93,0.00,,,0.00,weatherlink.com 1.10,2013-09-05 05:41:00,
2013-09-05 01:56:00,63.5,62.0,30.16,SW,214,0.0,0.0,93,0.00,,,0.00,weatherlink.com 1.10,2013-09-05 05:56:00,
2013-09-05 02:11:00,63.2,62.0,30.16,SW,215,0.0,0.0,94,0.00,,,0.00,weatherlink.com 1.10,2013-09-05 06:11:00,
2013-09-05 02:26:00,63.1,61.0,30.16,SW,215,0.0,0.0,94,0.00,,,0.00,weatherlink.com 1.10,2013-09-05 06:26:00,
2013-09-05 02:41:00,62.8,61.0,30.15,SW,215,0.0,0.0,94,0.00,,,0.00,weatherlink.com 1.10,2013-09-05 06:41:00,
2013-09-05 02:56:00,62.7,61.0,30.15,SW,214,0.0,0.0,95,0.00,,,0.00,weatherlink.com 1.10,2013-09-05 06:56:00,
2013-09-05 03:11:00,62.3,61.0,30.15,SW,214,0.0,0.0,95,0.00,,,0.00,weatherlink.com 1.10,2013-09-05 07:11:00,
2013-09-05 03:26:00,62.2,61.0,30.15,SW,215,0.0,0.0,95,0.00,,,0.00,weatherlink.com 1.10,2013-09-05 07:26:00,
2013-09-05 03:41:00,62.0,61.0,30.15,SW,215,0.0,0.0,95,0.00,,,0.00,weatherlink.com 1.10,2013-09-05 07:41:00,
2013-09-05 03:56:00,61.9,61.0,30.16,SW,215,0.0,0.0,95,0.00,,,0.00,weatherlink.com 1.10,2013-09-05 07:56:00,
2013-09-05 04:11:00,61.8,60.0,30.16,SW,215,0.0,0.0,95,0.00,,,0.00,weatherlink.com 1.10,2013-09-05 08:11:00,
2013-09-05 04:26:00,61.7,61.0,30.16,SW,215,0.0,0.0,96,0.00,,,0.00,weatherlink.com 1.10,2013-09-05 08:26:00,
2013-09-05 04:41:00,61.5,60.0,30.16,SW,214,0.0,0.0,96,0.00,,,0.00,weatherlink.com 1.10,2013-09-05 08:41:00,
2013-09-05 04:56:00,61.4,60.0,30.16,SW,215,0.0,0.0,96,0.00,,,0.00,weatherlink.com 1.10,2013-09-05 08:56:00,
2013-09-05 05:11:00,60.9,60.0,30.16,SW,215,0.0,0.0,96,0.00,,,0.00,weatherlink.com 1.10,2013-09-05 09:11:00,
2013-09-05 05:26:00,61.2,60.0,30.17,SW,215,0.0,0.0,96,0.00,,,0.00,weatherlink.com 1.10,2013-09-05 09:26:00,
2013-09-05 05:41:00,61.2,60.0,30.17,SW,215,0.0,0.0,97,0.00,,,0.00,weatherlink.com 1.10,2013-09-05 09:41:00,
2013-09-05 05:57:00,61.2,60.0,30.17,SW,215,0.0,0.0,97,0.00,,,0.00,weatherlink.com 1.10,2013-09-05 09:57:00,
2013-09-05 06:12:00,61.1,60.0,30.17,SW,215,0.0,0.0,97,0.00,,,0.00,weatherlink.com 1.10,2013-09-05 10:12:00,
2013-09-05 06:27:00,60.8,60.0,30.18,SW,215,0.0,0.0,97,0.00,,,0.00,weatherlink.com 1.10,2013-09-05 10:27:00,
2013-09-05 06:42:00,60.8,60.0,30.18,SW,215,0.0,0.0,97,0.00,,,0.00,weatherlink.com 1.10,2013-09-05 10:42:00,
2013-09-05 06:57:00,60.9,60.0,30.18,SW,215,0.0,0.0,97,0.00,,,0.00,weatherlink.com 1.10,2013-09-05 10:57:00,
2013-09-05 08:23:00,63.1,62.0,30.20,SW,215,0.0,0.0,97,0.00,,,0.00,weatherlink.com 1.10,2013-09-05 12:23:00,
2013-09-05 08:42:00,64.5,64.0,30.20,SW,228,0.0,0.0,97,0.00,,,0.00,weatherlink.com 1.10,2013-09-05 12:42:00,
2013-09-05 08:57:00,65.9,64.0,30.21,NNW,336,0.0,0.0,94,0.00,,,0.00,weatherlink.com 1.10,2013-09-05 12:57:00,
2013-09-05 09:12:00,67.6,65.0,30.21,West,269,0.0,0.0,92,0.00,,,0.00,weatherlink.com 1.10,2013-09-05 13:12:00,
2013-09-05 09:27:00,69.4,65.0,30.21,NW,325,0.0,0.0,87,0.00,,,0.00,weatherlink.com 1.10,2013-09-05 13:27:00,
2013-09-05 09:42:00,70.0,65.0,30.21,NE,49,0.0,2.0,84,0.00,,,0.00,weatherlink.com 1.10,2013-09-05 13:42:00,
2013-09-05 09:57:00,71.1,65.0,30.21,NE,44,0.0,2.0,82,0.00,,,0.00,weatherlink.com 1.10,2013-09-05 13:57:00,
2013-09-05 10:12:00,72.7,66.0,30.22,NE,43,1.0,3.0,78,0.00,,,0.00,weatherlink.com 1.10,2013-09-05 14:12:00,
2013-09-05 10:27:00,75.0,66.0,30.21,SE,134,0.0,3.0,73,0.00,,,0.00,weatherlink.com 1.10,2013-09-05 14:27:00,
2013-09-05 10:42:00,76.5,66.0,30.21,NE,49,1.0,3.0,69,0.00,,,0.00,weatherlink.com 1.10,2013-09-05 14:42:00,
2013-09-05 10:57:00,76.9,65.0,30.21,East,94,1.0,2.0,66,0.00,,,0.00,weatherlink.com 1.10,2013-09-05 14:57:00,
2013-09-05 11:12:00,78.5,66.0,30.21,SSE,165,1.0,3.0,66,0.00,,,0.00,weatherlink.com 1.10,2013-09-05 15:12:00,
2013-09-05 11:27:00,80.4,65.0,30.22,North,1,2.0,3.0,60,0.00,,,0.00,weatherlink.com 1.10,2013-09-05 15:27:00,
2013-09-05 11:42:00,80.9,64.0,30.21,ENE,64,1.0,2.0,56,0.00,,,0.00,weatherlink.com 1.10,2013-09-05 15:42:00,
2013-09-05 11:57:00,80.6,63.0,30.21,East,98,3.0,4.0,56,0.00,,,0.00,weatherlink.com 1.10,2013-09-05 15:57:00,
2013-09-05 12:12:00,81.1,63.0,30.21,SE,132,0.0,4.0,55,0.00,,,0.00,weatherlink.com 1.10,2013-09-05 16:12:00,
2013-09-05 12:27:00,81.1,63.0,30.22,SSW,211,2.0,3.0,54,0.00,,,0.00,weatherlink.com 1.10,2013-09-05 16:27:00,
2013-09-05 12:42:00,81.0,62.0,30.21,East,82,2.0,5.0,53,0.00,,,0.00,weatherlink.com 1.10,2013-09-05 16:42:00,
2013-09-05 12:57:00,82.4,62.0,30.21,NNE,33,1.0,2.0,51,0.00,,,0.00,weatherlink.com 1.10,2013-09-05 16:57:00,
2013-09-05 13:12:00,82.9,62.0,30.21,ESE,106,2.0,4.0,50,0.00,,,0.00,weatherlink.com 1.10,2013-09-05 17:12:00,
2013-09-05 13:28:00,83.2,63.0,30.21,WNW,283,0.0,5.0,50,0.00,,,0.00,weatherlink.com 1.10,2013-09-05 17:28:00,
2013-09-05 13:43:00,84.0,63.0,30.20,ENE,58,2.0,4.0,49,0.00,,,0.00,weatherlink.com 1.10,2013-09-05 17:43:00,
2013-09-05 13:58:00,84.2,61.0,30.20,NE,53,3.0,7.0,46,0.00,,,0.00,weatherlink.com 1.10,2013-09-05 17:58:00,
2013-09-05 14:17:00,84.4,62.0,30.20,NNE,32,2.0,4.0,47,0.00,,,0.00,weatherlink.com 1.10,2013-09-05 18:17:00,
2013-09-05 14:28:00,85.2,62.0,30.19,West,260,0.0,4.0,45,0.00,,,0.00,weatherlink.com 1.10,2013-09-05 18:28:00,
2013-09-05 14:43:00,84.6,61.0,30.19,NE,51,1.0,3.0,45,0.00,,,0.00,weatherlink.com 1.10,2013-09-05 18:43:00,
2013-09-05 14:58:00,85.1,59.0,30.18,ENE,65,2.0,4.0,42,0.00,,,0.00,weatherlink.com 1.10,2013-09-05 18:58:00,
2013-09-05 15:13:00,85.4,60.0,30.18,ESE,110,1.0,5.0,42,0.00,,,0.00,weatherlink.com 1.10,2013-09-05 19:13:00,
2013-09-05 15:28:00,86.0,60.0,30.17,ESE,103,1.0,5.0,42,0.00,,,0.00,weatherlink.com 1.10,2013-09-05 19:28:00,
2013-09-05 15:43:00,86.0,60.0,30.16,NE,53,2.0,5.0,42,0.00,,,0.00,weatherlink.com 1.10,2013-09-05 19:43:00,
2013-09-05 15:58:00,86.3,60.0,30.16,West,277,0.0,4.0,41,0.00,,,0.00,weatherlink.com 1.10,2013-09-05 19:58:00,
2013-09-05 16:13:00,87.4,61.0,30.16,North,4,1.0,4.0,41,0.00,,,0.00,weatherlink.com 1.10,2013-09-05 20:13:00,
2013-09-05 16:28:00,87.9,61.0,30.16,NNW,335,0.0,2.0,41,0.00,,,0.00,weatherlink.com 1.10,2013-09-05 20:28:00,
2013-09-05 16:43:00,88.4,62.0,30.16,SE,127,2.0,5.0,41,0.00,,,0.00,weatherlink.com 1.10,2013-09-05 20:43:00,
2013-09-05 16:58:00,87.8,61.0,30.16,West,264,0.0,3.0,40,0.00,,,0.00,weatherlink.com 1.10,2013-09-05 20:58:00,
2013-09-05 17:13:00,87.9,61.0,30.15,North,11,2.0,4.0,40,0.00,,,0.00,weatherlink.com 1.10,2013-09-05 21:13:00,
2013-09-05 17:28:00,87.4,61.0,30.15,NW,315,0.0,4.0,41,0.00,,,0.00,weatherlink.com 1.10,2013-09-05 21:28:00,
2013-09-05 17:58:00,87.9,62.0,30.15,WNW,285,0.0,3.0,42,0.00,,,0.00,weatherlink.com 1.10,2013-09-05 21:58:00,
2013-09-05 18:13:00,87.6,62.0,30.15,SE,145,0.0,3.0,43,0.00,,,0.00,weatherlink.com 1.10,2013-09-05 22:13:00,
2013-09-05 18:28:00,87.1,63.0,30.15,ENE,75,2.0,2.0,45,0.00,,,0.00,weatherlink.com 1.10,2013-09-05 22:28:00,
2013-09-05 18:43:00,86.6,63.0,30.15,NNE,23,1.0,3.0,46,0.00,,,0.00,weatherlink.com 1.10,2013-09-05 22:43:00,
2013-09-05 18:58:00,86.0,63.0,30.14,NNE,32,0.0,2.0,47,0.00,,,0.00,weatherlink.com 1.10,2013-09-05 22:58:00,
2013-09-05 19:13:00,86.0,63.0,30.14,WNW,297,0.0,1.0,47,0.00,,,0.00,weatherlink.com 1.10,2013-09-05 23:13:00,
2013-09-05 19:28:00,85.6,65.0,30.14,East,90,0.0,2.0,50,0.00,,,0.00,weatherlink.com 1.10,2013-09-05 23:28:00,
2013-09-05 19:43:00,82.1,65.0,30.14,NE,49,0.0,1.0,57,0.00,,,0.00,weatherlink.com 1.10,2013-09-05 23:43:00,
2013-09-05 20:54:00,75.3,64.0,30.15,SSE,157,0.0,0.0,68,0.00,,,0.00,weatherlink.com 1.10,2013-09-06 00:54:00,
2013-09-05 21:13:00,73.9,64.0,30.16,SSE,157,0.0,0.0,72,0.00,,,0.00,weatherlink.com 1.10,2013-09-06 01:13:00,
2013-09-05 21:43:00,72.6,65.0,30.16,WSW,257,0.0,0.0,76,0.00,,,0.00,weatherlink.com 1.10,2013-09-06 01:43:00,
2013-09-05 21:58:00,72.0,65.0,30.17,WSW,257,0.0,0.0,78,0.00,,,0.00,weatherlink.com 1.10,2013-09-06 01:58:00,
2013-09-05 22:13:00,71.5,64.0,30.17,WSW,257,0.0,0.0,78,0.00,,,0.00,weatherlink.com 1.10,2013-09-06 02:13:00,
2013-09-05 22:28:00,71.0,65.0,30.17,WSW,257,0.0,0.0,80,0.00,,,0.00,weatherlink.com 1.10,2013-09-06 02:28:00,
2013-09-05 22:43:00,70.6,65.0,30.17,WSW,257,0.0,0.0,82,0.00,,,0.00,weatherlink.com 1.10,2013-09-06 02:43:00,
2013-09-05 22:58:00,70.1,65.0,30.17,WSW,257,0.0,0.0,83,0.00,,,0.00,weatherlink.com 1.10,2013-09-06 02:58:00,
2013-09-05 23:13:00,69.7,64.0,30.17,WSW,257,0.0,0.0,83,0.00,,,0.00,weatherlink.com 1.10,2013-09-06 03:13:00,
2013-09-05 23:28:00,69.3,65.0,30.17,WSW,257,0.0,0.0,85,0.00,,,0.00,weatherlink.com 1.10,2013-09-06 03:28:00,
2013-09-05 23:43:00,69.1,65.0,30.17,WSW,257,0.0,0.0,85,0.00,,,0.00,weatherlink.com 1.10,2013-09-06 03:43:00,
2013-09-05 23:58:00,68.8,65.0,30.17,WSW,257,0.0,0.0,86,0.00,,,0.00,weatherlink.com 1.10,2013-09-06 03:58:00,